Aeroporto :
LOGIN :

Iscrizione | Disclaimer

   EN    FR    IT 

 










Sommario :    VFR   VFR Marginale   IFR   IFR Intensivo   IFR Molto Intensivo
Visibilità : 
Base nubi : 
>= 8 km
>= 3000ft
5 / 8 km
1000 / 3000 ft
1500m / 5 km
500 / 1000 ft
800 / 1500m
200 / 500 ft
< 800m
< 200 ft
Simboli :   Temporali  Nebbia  Neve Forte  Precipitazioni Forti  Vento > 20 kt
SIGMETs :   Varie  Temporali  Ghiacco  Turbolenza  Onda orograficha  Ceneri Vulcaniche






- Altitudine del aeroporto : 102 ft
- Codice IATA : CNG


LFBG - Cognac

ULTIMO METAR :
  • 271930Z AUTO VRB01KT 9999 SCT029/// SCT040/// BKN048/// ///CB 10/07 Q1015

METARs OBSOLETI :
  • 271900Z AUTO 12003KT 080V160 9999 BKN034/// BKN054/// OVC096/// ///TCU 10/06 Q1015
  • 271830Z AUTO VRB02KT 9999 FEW043 OVC088 09/06 Q1016
  • 271800Z AUTO 00000KT CAVOK 09/06 Q1016
  • 271730Z AUTO VRB02KT CAVOK 09/06 Q1016
  • 271700Z AUTO VRB03KT CAVOK 09/06 Q1016

Previsioni scadute.



MetMap, La meteo Aeronautica in un colpo d'occhio ! - Copyright ORBIFLY Dicembre 2007 - Disclaimer

ORBIFLY MET'MAP TEAM :

Programmazione e sviluppo : Alexandra Zaïnal
Concezione : Baudouin d'Aumeries
Supporto tecnico e logistico : Manuel Goepfert
Aiuto : Marc-Olivier Méhu
Aiuto per la traduzione : Arnaldo La Scala




FONTI E CREDITI :

   NOAA